createdAt,value
2019-03-19T00:02:23.198Z,6.20
2019-03-19T00:04:51.685Z,6.05
2019-03-19T00:07:20.170Z,6.10
2019-03-19T00:09:48.663Z,6.47
2019-03-19T00:12:17.154Z,6.90
2019-03-19T00:14:45.647Z,5.28
2019-03-19T00:17:14.175Z,6.10
2019-03-19T00:19:42.659Z,5.15
2019-03-19T00:22:11.145Z,4.95
2019-03-19T00:24:39.631Z,4.75
2019-03-19T00:27:08.115Z,5.00
2019-03-19T00:29:36.603Z,4.80
2019-03-19T00:32:05.075Z,4.47
2019-03-19T00:34:33.572Z,4.65
2019-03-19T00:37:02.062Z,4.58
2019-03-19T00:39:30.546Z,4.15
2019-03-19T00:41:59.030Z,5.10
2019-03-19T00:44:27.529Z,5.50
2019-03-19T00:46:56.010Z,6.47
2019-03-19T00:49:24.523Z,6.80
2019-03-19T00:51:52.999Z,6.58
2019-03-19T00:54:21.495Z,6.08
2019-03-19T00:56:49.980Z,5.70
2019-03-19T00:59:18.579Z,7.12
2019-03-19T01:01:47.063Z,6.47
2019-03-19T01:04:15.559Z,28.32
2019-03-19T01:06:44.046Z,9.73
2019-03-19T01:09:12.539Z,6.37
2019-03-19T01:11:41.028Z,5.83
2019-03-19T01:14:09.520Z,5.70
2019-03-19T01:16:38.008Z,11.80
2019-03-19T01:19:06.492Z,6.53
2019-03-19T01:21:35.096Z,6.75
2019-03-19T01:24:03.585Z,7.00
2019-03-19T01:26:32.081Z,6.58
2019-03-19T01:29:00.566Z,6.75
2019-03-19T01:31:29.066Z,7.75
2019-03-19T01:33:57.553Z,6.70
2019-03-19T01:36:26.040Z,6.55
2019-03-19T01:38:54.530Z,8.48
2019-03-19T01:41:23.046Z,9.05
2019-03-19T01:43:51.523Z,9.33
2019-03-19T01:46:20.013Z,8.18
2019-03-19T01:48:48.504Z,7.53
2019-03-19T01:51:16.991Z,8.05
2019-03-19T01:53:45.489Z,7.78
2019-03-19T01:56:13.987Z,9.20
2019-03-19T01:58:42.474Z,8.75
2019-03-19T02:01:10.966Z,6.85
2019-03-19T02:03:40.455Z,6.53
2019-03-19T02:06:08.948Z,6.90
2019-03-19T02:08:37.435Z,7.08
2019-03-19T02:11:05.932Z,7.40
2019-03-19T02:13:34.419Z,7.70
2019-03-19T02:16:02.918Z,7.58
2019-03-19T02:18:31.454Z,7.85
2019-03-19T02:20:59.951Z,7.12
2019-03-19T02:23:28.447Z,7.85
2019-03-19T02:25:56.935Z,8.15
2019-03-19T02:28:25.426Z,8.40
2019-03-19T02:30:53.920Z,8.98
2019-03-19T02:33:22.412Z,8.43
2019-03-19T02:35:50.897Z,7.75
2019-03-19T02:38:19.379Z,7.42
2019-03-19T02:40:47.971Z,7.70
2019-03-19T02:43:16.471Z,7.28
2019-03-19T02:45:44.958Z,8.03
2019-03-19T02:48:13.443Z,7.25
2019-03-19T02:50:41.950Z,10.65
2019-03-19T02:53:10.424Z,7.60
2019-03-19T02:55:38.948Z,7.12
2019-03-19T02:58:07.437Z,6.85
2019-03-19T03:00:35.936Z,6.92
2019-03-19T03:03:04.411Z,6.35
2019-03-19T03:05:32.890Z,6.62
2019-03-19T03:08:01.379Z,6.08
2019-03-19T03:10:29.869Z,6.60
2019-03-19T03:12:58.392Z,6.37
2019-03-19T03:15:26.891Z,7.08
2019-03-19T03:17:55.394Z,6.95
2019-03-19T03:20:23.875Z,7.17
2019-03-19T03:22:52.404Z,6.60
2019-03-19T03:25:20.886Z,6.42
2019-03-19T03:27:49.394Z,6.15
2019-03-19T03:30:20.229Z,6.58
2019-03-19T03:32:48.704Z,6.28
2019-03-19T03:35:17.301Z,6.83
2019-03-19T03:37:45.773Z,8.03
2019-03-19T03:40:16.404Z,8.23
2019-03-19T03:42:44.882Z,8.50
2019-03-19T03:45:17.264Z,10.25
2019-03-19T03:47:45.818Z,14.18
2019-03-19T03:50:16.283Z,25.08
2019-03-19T03:52:44.802Z,11.38
2019-03-19T03:55:14.606Z,10.53
2019-03-19T03:57:43.086Z,8.60
2019-03-19T04:00:17.182Z,11.05
2019-03-19T04:02:45.742Z,8.68
2019-03-19T04:05:14.264Z,6.90
2019-03-19T04:07:42.823Z,7.60
2019-03-19T04:10:12.802Z,7.50
2019-03-19T04:12:41.280Z,9.75
2019-03-19T04:15:11.649Z,7.47
2019-03-19T04:17:40.125Z,7.50
2019-03-19T04:20:10.421Z,7.17
2019-03-19T04:22:38.922Z,6.85
2019-03-19T04:25:08.501Z,7.92
2019-03-19T04:27:40.103Z,6.22
2019-03-19T04:30:10.161Z,6.67
2019-03-19T04:32:38.641Z,6.17
2019-03-19T04:35:07.440Z,6.42
2019-03-19T04:37:35.925Z,7.28
2019-03-19T04:40:07.179Z,6.78
2019-03-19T04:42:35.667Z,9.33
2019-03-19T04:45:04.568Z,7.42
2019-03-19T04:47:33.048Z,5.92
2019-03-19T04:50:01.553Z,6.58
2019-03-19T04:52:30.029Z,6.20
2019-03-19T04:54:58.519Z,6.87
2019-03-19T04:57:27.378Z,6.00
2019-03-19T04:59:55.873Z,8.30
2019-03-19T05:02:24.358Z,6.75
2019-03-19T05:04:52.856Z,7.67
2019-03-19T05:07:21.342Z,7.03
2019-03-19T05:09:49.835Z,6.85
2019-03-19T05:12:18.319Z,6.50
2019-03-19T05:14:46.822Z,8.35
2019-03-19T05:17:15.304Z,7.65
2019-03-19T05:19:43.798Z,6.87
2019-03-19T05:22:12.310Z,8.98
2019-03-19T05:24:40.814Z,12.43
2019-03-19T05:27:09.297Z,9.75
2019-03-19T05:29:37.793Z,18.25
2019-03-19T05:32:06.289Z,20.52
2019-03-19T05:34:34.793Z,12.68
2019-03-19T05:37:03.280Z,7.85
2019-03-19T05:39:31.784Z,14.23
2019-03-19T05:42:00.278Z,14.07
2019-03-19T05:44:28.780Z,14.60
2019-03-19T05:46:57.268Z,15.40
2019-03-19T05:49:25.763Z,11.08
2019-03-19T05:51:54.253Z,9.10
2019-03-19T05:54:22.743Z,13.80
2019-03-19T05:56:51.243Z,11.85
2019-03-19T05:59:19.732Z,10.98
2019-03-19T06:01:48.728Z,14.23
2019-03-19T06:04:17.220Z,10.78
2019-03-19T06:06:45.721Z,33.45
2019-03-19T06:09:14.297Z,13.60
2019-03-19T06:11:42.797Z,11.40
2019-03-19T06:14:11.296Z,12.20
2019-03-19T06:16:39.800Z,13.55
2019-03-19T06:19:08.290Z,11.33
2019-03-19T06:21:36.789Z,11.00
2019-03-19T06:24:05.279Z,12.60
2019-03-19T06:26:33.780Z,12.78
2019-03-19T06:29:02.274Z,10.35
2019-03-19T06:31:30.766Z,11.97
2019-03-19T06:33:59.254Z,11.88
2019-03-19T06:36:27.757Z,14.60
2019-03-19T06:38:56.240Z,11.15
2019-03-19T06:41:24.747Z,11.60
2019-03-19T06:43:53.234Z,10.58
2019-03-19T06:46:21.731Z,10.50
2019-03-19T06:48:50.221Z,8.98
2019-03-19T06:51:18.719Z,9.60
2019-03-19T06:53:47.209Z,19.55
2019-03-19T06:56:15.714Z,27.42
2019-03-19T06:58:44.203Z,9.35
2019-03-19T07:01:12.698Z,8.30
2019-03-19T07:03:41.190Z,9.05
2019-03-19T07:06:09.684Z,7.58
2019-03-19T07:08:38.175Z,8.30
2019-03-19T07:11:06.684Z,7.62
2019-03-19T07:13:35.155Z,8.50
2019-03-19T07:16:03.654Z,7.67
2019-03-19T07:18:33.839Z,8.50
2019-03-19T07:21:02.514Z,8.50
2019-03-19T07:23:31.001Z,8.00
2019-03-19T07:25:59.497Z,7.87
2019-03-19T07:28:27.981Z,8.58
2019-03-19T07:30:56.475Z,7.30
2019-03-19T07:33:24.974Z,7.03
2019-03-19T07:35:53.579Z,6.87
2019-03-19T07:38:22.069Z,7.08
2019-03-19T07:40:50.552Z,8.35
2019-03-19T07:43:19.130Z,7.08
2019-03-19T07:45:47.615Z,7.47
2019-03-19T07:48:16.109Z,7.03
2019-03-19T07:50:44.596Z,6.20
2019-03-19T07:53:13.085Z,6.35
2019-03-19T07:55:41.580Z,7.12
2019-03-19T07:58:10.066Z,6.65
2019-03-19T08:00:38.567Z,6.75
2019-03-19T08:03:15.626Z,7.37
2019-03-19T08:05:37.269Z,7.20
2019-03-19T08:08:05.756Z,7.03
2019-03-19T08:10:34.244Z,8.75
2019-03-19T08:13:02.733Z,8.28
2019-03-19T08:15:31.222Z,7.40
2019-03-19T08:17:59.769Z,7.78
2019-03-19T08:20:28.260Z,18.00
2019-03-19T08:22:56.759Z,6.97
2019-03-19T08:25:25.242Z,8.18
2019-03-19T08:27:53.746Z,7.20
2019-03-19T08:30:26.125Z,9.25
2019-03-19T08:32:54.661Z,7.72
2019-03-19T08:35:23.145Z,7.95
2019-03-19T08:37:51.645Z,7.30
2019-03-19T08:40:20.728Z,7.17
2019-03-19T08:42:49.217Z,10.98
2019-03-19T08:45:23.626Z,8.73
2019-03-19T08:47:52.138Z,7.05
2019-03-19T08:50:21.622Z,9.98
2019-03-19T08:52:50.130Z,9.93
2019-03-19T08:55:18.616Z,7.60
2019-03-19T08:57:47.106Z,8.70
2019-03-19T09:00:22.683Z,7.60
2019-03-19T09:02:51.183Z,6.55
2019-03-19T09:05:19.661Z,7.53
2019-03-19T09:07:48.153Z,6.15
2019-03-19T09:10:17.551Z,6.78
2019-03-19T09:12:48.199Z,7.33
2019-03-19T09:15:19.426Z,6.97
2019-03-19T09:17:47.895Z,6.53
2019-03-19T09:20:19.501Z,6.85
2019-03-19T09:22:47.989Z,7.05
2019-03-19T09:25:16.474Z,7.78
2019-03-19T09:27:45.031Z,7.30
2019-03-19T09:30:24.368Z,7.28
2019-03-19T09:32:52.864Z,6.55
2019-03-19T09:35:21.337Z,6.70
2019-03-19T09:37:58.151Z,8.00
2019-03-19T09:40:20.638Z,7.08
2019-03-19T09:42:49.134Z,7.05
2019-03-19T09:45:17.868Z,7.40
2019-03-19T09:47:46.574Z,6.78
2019-03-19T09:50:19.823Z,6.60
2019-03-19T09:52:48.316Z,7.85
2019-03-19T09:55:16.816Z,5.83
2019-03-19T09:57:45.412Z,13.72
2019-03-19T10:00:18.248Z,41.13
2019-03-19T10:02:46.747Z,6.97
2019-03-19T10:05:15.236Z,8.63
2019-03-19T10:07:43.762Z,6.03
2019-03-19T10:10:14.912Z,7.30
2019-03-19T10:12:43.410Z,6.87
2019-03-19T10:15:12.095Z,6.55
2019-03-19T10:17:40.595Z,6.92
2019-03-19T10:20:25.351Z,6.50
2019-03-19T10:22:53.854Z,6.37
2019-03-19T10:25:22.363Z,6.42
2019-03-19T10:27:50.852Z,6.30
2019-03-19T10:30:26.510Z,6.70
2019-03-19T10:32:54.998Z,6.22
2019-03-19T10:35:23.488Z,7.22
2019-03-19T10:37:51.982Z,6.87
2019-03-19T10:40:21.077Z,6.42
2019-03-19T10:42:49.570Z,7.67
2019-03-19T10:45:25.683Z,6.40
2019-03-19T10:47:54.183Z,5.83
2019-03-19T10:50:26.676Z,16.12
2019-03-19T10:52:55.163Z,11.95
2019-03-19T10:55:23.646Z,5.92
2019-03-19T10:57:54.094Z,6.47
2019-03-19T11:00:26.065Z,5.90
2019-03-19T11:02:54.556Z,5.90
2019-03-19T11:05:23.457Z,5.65
2019-03-19T11:07:52.045Z,5.95
2019-03-19T11:10:20.534Z,4.83
2019-03-19T11:12:49.039Z,5.80
2019-03-19T11:15:22.665Z,5.90
2019-03-19T11:17:51.197Z,6.33
2019-03-19T11:20:20.305Z,4.87
2019-03-19T11:22:48.783Z,5.92
2019-03-19T11:25:18.872Z,6.30
2019-03-19T11:27:47.359Z,6.33
2019-03-19T11:30:21.127Z,5.12
2019-03-19T11:32:49.621Z,6.15
2019-03-19T11:35:18.315Z,5.35
2019-03-19T11:37:46.796Z,4.90
2019-03-19T11:40:16.894Z,6.55
2019-03-19T11:42:45.375Z,5.37
2019-03-19T11:45:22.214Z,5.60
2019-03-19T11:47:50.699Z,5.80
2019-03-19T11:50:25.852Z,5.30
2019-03-19T11:52:54.339Z,4.80
2019-03-19T11:55:22.829Z,5.50
2019-03-19T11:57:51.423Z,5.85
2019-03-19T12:00:36.350Z,6.47
2019-03-19T12:03:12.733Z,5.10
2019-03-19T12:05:35.411Z,8.40
2019-03-19T12:08:03.913Z,5.47
2019-03-19T12:10:32.411Z,4.80
2019-03-19T12:13:00.893Z,5.08
2019-03-19T12:15:29.390Z,5.35
2019-03-19T12:17:57.870Z,4.75
2019-03-19T12:20:26.363Z,5.25
2019-03-19T12:22:54.880Z,4.60
2019-03-19T12:25:23.376Z,4.42
2019-03-19T12:27:51.861Z,4.35
2019-03-19T12:30:23.726Z,4.92
2019-03-19T12:32:51.764Z,4.92
2019-03-19T12:35:20.551Z,4.20
2019-03-19T12:37:49.081Z,4.05
2019-03-19T12:40:21.461Z,4.53
2019-03-19T12:42:49.943Z,5.20
2019-03-19T12:45:19.545Z,4.97
2019-03-19T12:47:48.018Z,5.22
2019-03-19T12:50:20.405Z,5.22
2019-03-19T12:52:48.913Z,4.75
2019-03-19T12:55:17.422Z,4.40
2019-03-19T12:57:45.904Z,4.20
2019-03-19T13:00:33.258Z,4.90
2019-03-19T13:02:54.825Z,16.30
2019-03-19T13:05:23.310Z,6.00
2019-03-19T13:07:51.816Z,4.97
2019-03-19T13:10:23.887Z,4.40
2019-03-19T13:12:52.381Z,4.90
2019-03-19T13:15:21.263Z,4.30
2019-03-19T13:17:49.764Z,4.90
2019-03-19T13:20:19.035Z,4.62
2019-03-19T13:22:47.527Z,4.55
2019-03-19T13:25:20.527Z,4.87
2019-03-19T13:27:49.022Z,5.00
2019-03-19T13:30:22.322Z,6.25
2019-03-19T13:32:50.830Z,4.92
2019-03-19T13:35:19.306Z,4.60
2019-03-19T13:37:47.804Z,5.28
2019-03-19T13:40:18.145Z,5.72
2019-03-19T13:42:46.636Z,5.28
2019-03-19T13:45:18.239Z,7.85
2019-03-19T13:47:46.762Z,6.00
2019-03-19T13:50:17.306Z,7.72
2019-03-19T13:52:45.800Z,6.95
2019-03-19T13:55:18.898Z,4.92
2019-03-19T13:57:47.391Z,4.70
2019-03-19T14:00:19.518Z,5.20
2019-03-19T14:02:48.797Z,6.00
2019-03-19T14:05:17.778Z,5.50
2019-03-19T14:07:50.659Z,5.42
2019-03-19T14:10:19.852Z,5.08
2019-03-19T14:12:48.439Z,6.75
2019-03-19T14:15:29.454Z,7.47
2019-03-19T14:18:07.086Z,6.85
2019-03-19T14:20:43.911Z,6.10
2019-03-19T14:23:17.131Z,5.35
2019-03-19T14:25:51.432Z,4.40
2019-03-19T14:28:21.401Z,7.50
2019-03-19T14:31:08.104Z,6.65
2019-03-19T14:33:32.026Z,9.18
2019-03-19T14:36:07.473Z,9.95
2019-03-19T14:38:46.516Z,8.98
2019-03-19T14:41:09.936Z,7.47
2019-03-19T14:43:38.421Z,6.42
2019-03-19T14:46:06.923Z,5.62
2019-03-19T14:48:35.403Z,5.28
2019-03-19T14:51:03.893Z,8.78
2019-03-19T14:53:32.388Z,13.93
2019-03-19T14:56:00.886Z,8.08
2019-03-19T14:58:29.467Z,5.92
2019-03-19T15:00:57.962Z,5.30
2019-03-19T15:03:26.505Z,5.17
2019-03-19T15:05:54.946Z,5.42
2019-03-19T15:08:25.408Z,5.67
2019-03-19T15:10:53.687Z,5.25
2019-03-19T15:13:22.174Z,5.90
2019-03-19T15:16:06.440Z,4.72
2019-03-19T15:18:40.919Z,4.53
2019-03-19T15:21:09.446Z,5.47
2019-03-19T15:23:43.758Z,5.65
2019-03-19T15:26:13.406Z,5.25
2019-03-19T15:28:41.892Z,5.20
2019-03-19T15:31:10.373Z,6.17
2019-03-19T15:33:38.870Z,6.20
2019-03-19T15:36:07.351Z,6.00
2019-03-19T15:38:35.844Z,5.87
2019-03-19T15:41:04.342Z,6.70
2019-03-19T15:43:35.631Z,5.53
2019-03-19T15:46:11.776Z,8.65
2019-03-19T15:48:40.306Z,8.95
2019-03-19T15:51:08.792Z,8.93
2019-03-19T15:53:37.287Z,35.08
2019-03-19T15:56:05.789Z,8.13
2019-03-19T15:58:34.270Z,6.87
2019-03-19T16:01:02.763Z,8.88
2019-03-19T16:03:31.245Z,7.97
2019-03-19T16:05:59.780Z,9.30
2019-03-19T16:08:28.270Z,9.80
2019-03-19T16:10:56.767Z,8.58
2019-03-19T16:13:25.259Z,10.58
2019-03-19T16:15:53.757Z,14.20
2019-03-19T16:18:22.251Z,24.47
2019-03-19T16:20:50.742Z,19.12
2019-03-19T16:23:19.245Z,26.75
2019-03-19T16:25:47.738Z,42.40
2019-03-19T16:28:17.522Z,34.58
2019-03-19T16:30:46.023Z,65.40
2019-03-19T16:33:15.106Z,31.50
2019-03-19T16:35:46.138Z,15.40
2019-03-19T16:38:15.629Z,14.53
2019-03-19T16:40:47.002Z,20.37
2019-03-19T16:43:21.135Z,23.62
2019-03-19T16:45:54.207Z,16.48
2019-03-19T16:48:28.804Z,10.53
2019-03-19T16:50:59.637Z,9.35
2019-03-19T16:53:31.237Z,7.78
2019-03-19T16:56:00.925Z,7.00
2019-03-19T16:58:29.408Z,9.70
2019-03-19T17:00:57.903Z,13.75
2019-03-19T17:03:26.396Z,14.78
2019-03-19T17:05:54.903Z,13.45
2019-03-19T17:08:23.397Z,11.78
2019-03-19T17:10:51.882Z,11.38
2019-03-19T17:13:20.374Z,12.73
2019-03-19T17:15:48.868Z,12.35
2019-03-19T17:18:17.376Z,12.85
2019-03-19T17:20:45.866Z,12.50
2019-03-19T17:23:14.360Z,10.25
2019-03-19T17:25:42.851Z,12.10
2019-03-19T17:28:21.890Z,10.00
2019-03-19T17:30:41.645Z,10.18
2019-03-19T17:33:10.142Z,9.10
2019-03-19T17:35:38.635Z,12.23
2019-03-19T17:38:08.887Z,12.50
2019-03-19T17:40:41.546Z,12.95
2019-03-19T17:43:07.571Z,10.95
2019-03-19T17:45:36.085Z,11.38
2019-03-19T17:48:04.573Z,11.43
2019-03-19T17:50:41.589Z,13.03
2019-03-19T17:53:10.090Z,11.48
2019-03-19T17:55:41.832Z,11.22
2019-03-19T17:58:10.333Z,12.55
2019-03-19T18:00:49.263Z,11.38
2019-03-19T18:03:17.760Z,11.33
2019-03-19T18:05:46.252Z,12.45
2019-03-19T18:08:14.789Z,19.35
2019-03-19T18:10:43.292Z,20.92
2019-03-19T18:13:11.785Z,19.90
2019-03-19T18:15:40.281Z,19.25
2019-03-19T18:18:08.772Z,17.45
2019-03-19T18:20:37.920Z,16.40
2019-03-19T18:23:06.411Z,16.15
2019-03-19T18:25:34.929Z,22.95
2019-03-19T18:28:03.429Z,20.43
2019-03-19T18:30:31.928Z,14.58
2019-03-19T18:33:00.486Z,13.83
2019-03-19T18:35:28.987Z,14.00
2019-03-19T18:37:57.480Z,13.25
2019-03-19T18:40:25.977Z,17.45
2019-03-19T18:42:54.473Z,19.98
2019-03-19T18:45:22.979Z,16.40
2019-03-19T18:47:51.484Z,16.20
2019-03-19T18:50:23.177Z,21.97
2019-03-19T18:52:51.694Z,34.45
2019-03-19T18:55:20.200Z,26.85
2019-03-19T18:57:48.688Z,19.10
2019-03-19T19:00:19.048Z,14.40
2019-03-19T19:02:50.149Z,12.15
2019-03-19T19:05:19.935Z,10.95
2019-03-19T19:07:48.476Z,11.10
2019-03-19T19:10:17.589Z,9.63
2019-03-19T19:12:46.077Z,9.18
2019-03-19T19:15:15.958Z,9.75
2019-03-19T19:17:52.671Z,11.20
2019-03-19T19:20:28.112Z,11.35
2019-03-19T19:23:08.414Z,12.00
2019-03-19T19:25:37.079Z,11.43
2019-03-19T19:28:08.696Z,10.00
2019-03-19T19:30:37.182Z,11.28
2019-03-19T19:33:05.693Z,10.32
2019-03-19T19:35:34.182Z,9.85
2019-03-19T19:38:03.639Z,9.85
2019-03-19T19:40:32.259Z,10.78
2019-03-19T19:43:00.742Z,10.72
2019-03-19T19:45:29.238Z,10.80
2019-03-19T19:47:57.729Z,9.85
2019-03-19T19:50:26.218Z,10.95
2019-03-19T19:52:54.711Z,10.20
2019-03-19T19:55:23.210Z,10.88
2019-03-19T19:57:51.706Z,10.95
2019-03-19T20:00:20.897Z,10.80
2019-03-19T20:02:49.398Z,10.13
2019-03-19T20:05:17.890Z,9.48
2019-03-19T20:07:46.373Z,9.10
2019-03-19T20:10:19.722Z,9.80
2019-03-19T20:12:48.219Z,10.28
2019-03-19T20:15:16.719Z,10.78
2019-03-19T20:17:45.210Z,9.58
2019-03-19T20:20:24.603Z,11.68
2019-03-19T20:22:53.096Z,12.03
2019-03-19T20:25:21.584Z,14.40
2019-03-19T20:27:50.085Z,15.13
2019-03-19T20:30:21.134Z,18.45
2019-03-19T20:32:49.630Z,14.60
2019-03-19T20:35:18.115Z,12.07
2019-03-19T20:37:49.296Z,13.78
2019-03-19T20:40:19.070Z,15.15
2019-03-19T20:42:47.567Z,18.00
2019-03-19T20:45:17.751Z,19.75
2019-03-19T20:47:46.251Z,12.20
2019-03-19T20:50:17.503Z,12.13
2019-03-19T20:52:46.000Z,10.95
2019-03-19T20:55:14.496Z,14.00
2019-03-19T20:57:42.997Z,14.87
2019-03-19T21:00:16.135Z,10.78
2019-03-19T21:02:44.593Z,10.13
2019-03-19T21:05:13.080Z,9.30
2019-03-19T21:07:41.586Z,9.23
2019-03-19T21:10:12.872Z,9.58
2019-03-19T21:12:43.042Z,10.28
2019-03-19T21:15:21.811Z,9.43
2019-03-19T21:17:52.725Z,9.40
2019-03-19T21:20:21.220Z,9.48
2019-03-19T21:22:49.731Z,9.68
2019-03-19T21:25:18.205Z,9.83
2019-03-19T21:27:49.600Z,10.13
2019-03-19T21:30:22.209Z,8.43
2019-03-19T21:32:50.768Z,8.40
2019-03-19T21:35:24.769Z,9.08
2019-03-19T21:37:53.260Z,9.25
2019-03-19T21:40:24.217Z,10.80
2019-03-19T21:42:52.671Z,10.20
2019-03-19T21:45:24.494Z,10.25
2019-03-19T21:47:52.987Z,9.98
2019-03-19T21:50:22.574Z,9.98
2019-03-19T21:52:51.071Z,9.85
2019-03-19T21:55:20.620Z,9.90
2019-03-19T21:57:49.135Z,10.20
2019-03-19T22:00:18.820Z,9.73
2019-03-19T22:02:47.319Z,9.95
2019-03-19T22:05:15.814Z,10.72
2019-03-19T22:07:44.307Z,11.80
2019-03-19T22:10:19.273Z,11.08
2019-03-19T22:12:49.311Z,9.90
2019-03-19T22:15:23.038Z,10.00
2019-03-19T22:17:51.530Z,10.60
2019-03-19T22:20:20.022Z,10.72
2019-03-19T22:22:48.525Z,10.50
2019-03-19T22:25:17.003Z,9.68
2019-03-19T22:27:45.498Z,9.88
2019-03-19T22:30:15.690Z,9.80
2019-03-19T22:32:44.228Z,9.20
2019-03-19T22:35:12.701Z,9.35
2019-03-19T22:37:41.172Z,9.15
2019-03-19T22:40:15.203Z,9.23
2019-03-19T22:42:43.743Z,10.63
2019-03-19T22:45:16.208Z,10.30
2019-03-19T22:47:44.692Z,9.18
2019-03-19T22:50:18.043Z,14.78
2019-03-19T22:52:46.528Z,21.80
2019-03-19T22:55:28.717Z,15.35
2019-03-19T22:57:48.478Z,10.70
2019-03-19T23:00:25.771Z,8.98
2019-03-19T23:02:54.256Z,10.20
2019-03-19T23:05:22.997Z,9.40
2019-03-19T23:07:51.475Z,9.03
2019-03-19T23:10:19.960Z,8.73
2019-03-19T23:12:48.455Z,8.60
2019-03-19T23:15:16.944Z,8.80
2019-03-19T23:17:45.444Z,10.40
2019-03-19T23:20:14.424Z,9.83
2019-03-19T23:22:42.918Z,9.80
2019-03-19T23:25:11.401Z,9.43
2019-03-19T23:27:39.908Z,10.08
2019-03-19T23:30:14.451Z,9.83
2019-03-19T23:32:42.943Z,8.93
2019-03-19T23:35:11.434Z,9.38
2019-03-19T23:37:39.928Z,9.85
2019-03-19T23:40:13.108Z,9.20
2019-03-19T23:42:41.603Z,9.68
2019-03-19T23:45:11.091Z,12.10
2019-03-19T23:47:39.581Z,19.42
2019-03-19T23:50:20.895Z,14.78
2019-03-19T23:52:49.388Z,9.75
2019-03-19T23:55:17.874Z,8.98
2019-03-19T23:57:46.384Z,9.15
